Time;durP1;ratioP1;P1;durP2;ratioP2;P2;SDS_P1;SDS_P2;PMS_P1;PMS_P2;Temp;Humidity;BMP_temperature;BMP_pressure;BME280_temperature;BME280_humidity;BME280_pressure;Samples;Min_cycle;Max_cycle;Signal;HPM_P1;HPM_P2
2023/03/10 00:00:44;;;;;;;29.23;17.50;;;1.30;1.00;;;;;;5027734;28;20191;-77
2023/03/10 00:03:10;;;;;;;29.43;17.27;;;1.30;1.00;;;;;;5027602;28;20183;-76
2023/03/10 00:05:37;;;;;;;32.77;18.00;;;1.30;1.00;;;;;;5027601;28;20268;-77
2023/03/10 00:08:03;;;;;;;29.90;18.27;;;1.30;1.00;;;;;;5018320;28;20244;-77
2023/03/10 00:10:29;;;;;;;32.33;17.83;;;1.40;1.00;;;;;;5026890;28;20613;-76
2023/03/10 00:12:54;;;;;;;31.13;17.47;;;1.40;1.00;;;;;;5027788;28;20290;-77
2023/03/10 00:15:20;;;;;;;34.20;18.17;;;1.40;1.00;;;;;;5027086;28;20697;-76
2023/03/10 00:17:48;;;;;;;32.67;18.40;;;1.40;99.90;;;;;;5028481;28;20229;-77
2023/03/10 00:20:15;;;;;;;30.80;18.00;;;1.40;99.90;;;;;;5026545;28;20244;-77
2023/03/10 00:22:41;;;;;;;30.40;16.43;;;1.40;99.90;;;;;;5027883;28;20182;-75
2023/03/10 00:25:08;;;;;;;32.53;18.03;;;1.40;1.00;;;;;;5018676;28;20218;-77
2023/03/10 00:27:37;;;;;;;31.33;17.07;;;1.40;1.00;;;;;;5026666;28;20270;-76
2023/03/10 00:30:03;;;;;;;30.67;16.53;;;1.40;1.00;;;;;;5026768;28;20206;-77
2023/03/10 00:32:29;;;;;;;33.63;17.87;;;1.40;1.00;;;;;;5026206;28;20312;-77
2023/03/10 00:34:55;;;;;;;28.70;16.73;;;1.50;1.00;;;;;;5025297;28;20301;-77
2023/03/10 00:37:21;;;;;;;27.97;15.23;;;1.50;1.00;;;;;;5027819;28;20187;-76
2023/03/10 00:39:50;;;;;;;26.13;15.63;;;1.60;1.00;;;;;;5025933;28;20187;-76
2023/03/10 00:42:15;;;;;;;28.87;16.33;;;1.60;1.00;;;;;;5026680;28;20183;-77
2023/03/10 00:44:41;;;;;;;28.80;15.93;;;1.60;1.00;;;;;;5025840;28;20237;-76
2023/03/10 00:47:07;;;;;;;26.30;14.83;;;1.60;1.00;;;;;;5026763;28;20187;-77
2023/03/10 00:49:32;;;;;;;28.20;15.40;;;1.60;1.00;;;;;;5018356;28;21099;-77
2023/03/10 00:51:58;;;;;;;27.67;14.60;;;1.60;99.90;;;;;;5027385;28;20267;-77
2023/03/10 00:54:23;;;;;;;24.73;14.10;;;1.60;99.90;;;;;;5025547;28;20207;-76
2023/03/10 00:56:49;;;;;;;27.17;15.33;;;1.60;99.90;;;;;;5026529;28;20210;-77
2023/03/10 00:59:15;;;;;;;27.43;14.53;;;1.60;99.90;;;;;;5027517;28;20183;-77
2023/03/10 01:01:41;;;;;;;28.97;15.07;;;1.60;1.00;;;;;;5025389;28;20659;-77
2023/03/10 01:04:11;;;;;;;26.23;14.83;;;1.60;1.00;;;;;;5024575;28;20176;-76
2023/03/10 01:06:37;;;;;;;22.57;13.07;;;1.60;1.00;;;;;;5016894;28;20260;-76
2023/03/10 01:09:03;;;;;;;26.43;14.33;;;1.60;1.00;;;;;;5026291;28;20210;-77
2023/03/10 01:11:30;;;;;;;29.03;15.00;;;1.70;1.00;;;;;;5026308;28;20213;-76
2023/03/10 01:14:01;;;;;;;26.73;13.97;;;1.70;99.90;;;;;;5026453;28;20202;-77
2023/03/10 01:16:28;;;;;;;25.23;14.77;;;1.70;99.90;;;;;;5026304;28;20214;-76
2023/03/10 01:18:54;;;;;;;28.93;15.37;;;1.70;99.90;;;;;;5024701;28;20674;-76
2023/03/10 01:21:25;;;;;;;27.57;14.93;;;1.70;99.90;;;;;;5025289;28;20188;-77
2023/03/10 01:23:51;;;;;;;28.63;15.30;;;1.70;99.90;;;;;;5024637;28;20182;-77
2023/03/10 01:26:17;;;;;;;26.80;15.30;;;1.70;99.90;;;;;;4994350;28;1372972;-76
2023/03/10 01:28:44;;;;;;;29.20;15.83;;;1.70;99.90;;;;;;5027337;28;20193;-78
2023/03/10 01:31:10;;;;;;;26.97;15.13;;;1.70;99.90;;;;;;5026687;28;20191;-76
2023/03/10 01:33:41;;;;;;;29.50;15.87;;;1.80;99.90;;;;;;5026201;28;20207;-76
2023/03/10 01:36:19;;;;;;;29.17;15.60;;;1.70;99.90;;;;;;5026856;28;20713;-77
2023/03/10 01:38:45;;;;;;;24.73;14.17;;;1.70;23.70;;;;;;5024855;28;20300;-76
2023/03/10 01:41:11;;;;;;;25.47;14.43;;;1.70;1.00;;;;;;5024145;28;20567;-77
2023/03/10 01:43:39;;;;;;;29.90;16.27;;;1.70;1.00;;;;;;5017904;28;20182;-76
2023/03/10 01:46:30;;;;;;;27.70;15.33;;;1.70;1.00;;;;;;5024531;28;20606;-76
2023/03/10 01:49:01;;;;;;;25.87;13.93;;;1.70;1.00;;;;;;5020195;28;20198;-77
2023/03/10 01:51:29;;;;;;;26.87;14.37;;;1.70;99.90;;;;;;5024612;28;21044;-76
2023/03/10 01:53:55;;;;;;;25.73;14.93;;;1.70;99.90;;;;;;5014410;28;20238;-76
2023/03/10 01:56:21;;;;;;;27.90;14.20;;;1.80;99.90;;;;;;5018094;28;20211;-77
2023/03/10 01:58:47;;;;;;;27.30;14.67;;;1.80;99.90;;;;;;5026716;28;20187;-76
2023/03/10 02:01:13;;;;;;;26.13;14.47;;;1.70;99.90;;;;;;5026320;28;20308;-77
2023/03/10 02:03:48;;;;;;;27.63;14.43;;;1.70;99.90;;;;;;5025728;28;20651;-76
2023/03/10 02:06:18;;;;;;;27.37;14.53;;;1.70;1.00;;;;;;5026159;28;20624;-76
2023/03/10 02:08:53;;;;;;;28.10;14.03;;;1.70;1.00;;;;;;5025848;28;20187;-76
2023/03/10 02:11:20;;;;;;;26.70;14.67;;;1.60;1.00;;;;;;5025094;28;20186;-77
2023/03/10 02:13:46;;;;;;;23.90;13.30;;;1.70;1.00;;;;;;5025321;28;20827;-76
2023/03/10 02:16:12;;;;;;;24.57;12.37;;;1.70;81.50;;;;;;5026196;28;20214;-76
2023/03/10 02:18:40;;;;;;;23.13;13.10;;;1.70;99.90;;;;;;5040451;28;21101;-77
2023/03/10 02:21:35;;;;;;;22.90;12.27;;;1.80;99.90;;;;;;5025960;28;20186;-77
2023/03/10 02:24:26;;;;;;;25.13;12.33;;;1.80;99.90;;;;;;5024657;28;20577;-76
2023/03/10 02:27:13;;;;;;;20.93;12.13;;;1.80;99.90;;;;;;5017075;28;20976;-76
2023/03/10 02:30:06;;;;;;;21.27;12.17;;;1.80;99.90;;;;;;5024958;28;20209;-77
2023/03/10 02:32:36;;;;;;;19.67;11.63;;;1.90;99.90;;;;;;5007644;28;20205;-77
2023/03/10 02:35:03;;;;;;;19.90;12.00;;;1.90;99.90;;;;;;5024484;28;20359;-76
2023/03/10 02:37:31;;;;;;;21.50;12.47;;;2.00;99.90;;;;;;5016284;28;20187;-77
2023/03/10 02:39:58;;;;;;;20.27;11.73;;;2.00;99.90;;;;;;5025101;28;20186;-77
2023/03/10 02:42:28;;;;;;;18.17;11.67;;;2.00;90.60;;;;;;5025303;28;20197;-77
2023/03/10 02:44:54;;;;;;;19.70;12.20;;;2.00;17.20;;;;;;5025568;28;20237;-77
2023/03/10 02:47:19;;;;;;;17.33;10.87;;;2.00;1.00;;;;;;5024356;28;20218;-78
2023/03/10 02:49:45;;;;;;;19.53;11.53;;;2.00;1.00;;;;;;5024843;28;20220;-76
2023/03/10 02:52:25;;;;;;;21.80;12.67;;;1.90;1.00;;;;;;5024768;28;20616;-77
2023/03/10 02:54:51;;;;;;;20.30;11.90;;;1.90;28.60;;;;;;5019223;28;20234;-76
2023/03/10 02:57:16;;;;;;;19.70;11.10;;;1.90;72.50;;;;;;5025598;28;20237;-77
2023/03/10 02:59:42;;;;;;;19.60;11.60;;;2.00;99.90;;;;;;5025815;28;20187;-77
2023/03/10 03:02:08;;;;;;;17.67;11.30;;;1.90;99.90;;;;;;5026110;28;20183;-77
2023/03/10 03:04:33;;;;;;;17.83;10.63;;;2.00;66.00;;;;;;5024846;28;20219;-77
2023/03/10 03:06:59;;;;;;;20.53;12.27;;;2.00;1.00;;;;;;5017109;28;20230;-77
2023/03/10 03:09:24;;;;;;;18.30;11.50;;;2.00;1.00;;;;;;5025359;28;20187;-77
2023/03/10 03:11:50;;;;;;;21.17;11.63;;;2.00;1.00;;;;;;5025535;28;20191;-76
2023/03/10 03:14:15;;;;;;;19.53;11.77;;;2.00;1.00;;;;;;5024102;28;20263;-76
2023/03/10 03:16:41;;;;;;;20.10;12.00;;;2.00;11.00;;;;;;5025273;28;20211;-76
2023/03/10 03:19:06;;;;;;;18.77;11.10;;;2.10;99.60;;;;;;5024274;28;20191;-77
2023/03/10 03:21:32;;;;;;;17.53;11.10;;;2.00;99.90;;;;;;5025711;28;20194;-77
2023/03/10 03:23:57;;;;;;;21.63;11.37;;;2.10;99.90;;;;;;5027643;28;20179;-77
2023/03/10 03:26:25;;;;;;;17.70;11.37;;;2.00;99.90;;;;;;5044519;28;20273;-76
2023/03/10 03:28:51;;;;;;;18.43;11.13;;;2.00;99.90;;;;;;5029025;28;20345;-76
2023/03/10 03:31:25;;;;;;;19.60;11.90;;;2.10;99.90;;;;;;5029972;28;21287;-77
2023/03/10 03:33:50;;;;;;;18.30;11.73;;;2.10;99.90;;;;;;5044406;28;20191;-77
2023/03/10 03:36:16;;;;;;;18.90;11.57;;;2.10;99.90;;;;;;5029246;28;20603;-77
2023/03/10 03:38:42;;;;;;;22.03;12.03;;;2.00;99.90;;;;;;5029159;28;20705;-78
2023/03/10 03:41:09;;;;;;;23.70;12.70;;;2.10;99.90;;;;;;5029079;28;20183;-77
2023/03/10 03:43:34;;;;;;;22.07;12.43;;;2.10;99.90;;;;;;5027764;28;20602;-76
2023/03/10 03:46:00;;;;;;;20.43;11.70;;;2.10;99.90;;;;;;5020310;28;20291;-77
2023/03/10 03:48:26;;;;;;;20.90;12.27;;;2.10;99.90;;;;;;5031330;28;20199;-77
2023/03/10 03:50:52;;;;;;;18.27;11.67;;;2.10;99.90;;;;;;5019866;28;21121;-77
2023/03/10 03:53:18;;;;;;;23.37;12.87;;;2.20;99.90;;;;;;5033295;28;20191;-77
2023/03/10 03:55:43;;;;;;;19.77;11.83;;;2.20;99.90;;;;;;5031151;28;20818;-76
2023/03/10 03:58:09;;;;;;;18.07;11.90;;;2.30;99.90;;;;;;5032289;28;20198;-76
2023/03/10 04:00:34;;;;;;;23.27;13.33;;;2.20;99.90;;;;;;5028567;28;20271;-76
2023/03/10 04:03:01;;;;;;;23.03;13.57;;;2.30;99.90;;;;;;5028319;28;20187;-76
2023/03/10 04:05:27;;;;;;;23.43;13.23;;;2.40;99.90;;;;;;5027560;28;20344;-77
2023/03/10 04:07:53;;;;;;;27.50;14.37;;;2.50;1.00;;;;;;5027484;28;20710;-76
2023/03/10 04:10:22;;;;;;;25.77;13.80;;;2.50;1.00;;;;;;5026601;28;20190;-77
2023/03/10 04:12:48;;;;;;;23.63;14.20;;;2.50;1.00;;;;;;5019054;28;20187;-76
2023/03/10 04:15:13;;;;;;;26.70;13.87;;;2.50;1.00;;;;;;5026961;28;20215;-76
2023/03/10 04:17:39;;;;;;;24.87;13.80;;;2.50;1.00;;;;;;5027171;28;20179;-75
2023/03/10 04:20:07;;;;;;;23.37;12.37;;;2.50;1.00;;;;;;5026826;28;20262;-76
2023/03/10 04:22:33;;;;;;;23.87;12.97;;;2.50;1.00;;;;;;5027261;28;20186;-76
2023/03/10 04:24:59;;;;;;;22.50;12.77;;;2.50;1.00;;;;;;5017402;28;20690;-78
2023/03/10 04:27:24;;;;;;;23.23;12.97;;;2.50;1.00;;;;;;5027088;28;20205;-76
2023/03/10 04:29:50;;;;;;;21.03;12.97;;;2.50;1.00;;;;;;5026705;28;20187;-79
2023/03/10 04:32:15;;;;;;;23.30;13.50;;;2.60;1.00;;;;;;5024880;28;20186;-76
2023/03/10 04:34:41;;;;;;;24.93;13.60;;;2.60;1.00;;;;;;5025070;28;20213;-76
2023/03/10 04:37:07;;;;;;;23.90;13.77;;;2.50;1.00;;;;;;5027162;28;20210;-76
2023/03/10 04:39:33;;;;;;;25.33;14.20;;;2.50;1.00;;;;;;5026407;28;20186;-76
2023/03/10 04:41:58;;;;;;;21.57;13.00;;;2.50;1.00;;;;;;5027149;28;20591;-75
2023/03/10 04:44:24;;;;;;;22.30;12.83;;;2.50;1.00;;;;;;5026548;28;20214;-78
2023/03/10 04:46:49;;;;;;;22.57;13.63;;;2.50;1.00;;;;;;5042547;28;20191;-75
2023/03/10 04:49:15;;;;;;;23.77;12.80;;;2.60;1.00;;;;;;5027310;28;20273;-77
2023/03/10 04:51:41;;;;;;;21.73;13.20;;;2.50;1.00;;;;;;5042687;28;20186;-76
2023/03/10 04:54:07;;;;;;;21.43;12.70;;;2.50;1.00;;;;;;5040931;28;20191;-76
2023/03/10 04:56:33;;;;;;;21.37;13.37;;;2.50;1.00;;;;;;5023197;28;20448;-79
2023/03/10 04:58:58;;;;;;;18.63;11.77;;;2.50;1.00;;;;;;5016531;28;20251;-76
2023/03/10 05:01:24;;;;;;;19.53;12.67;;;2.50;1.00;;;;;;5025268;28;20265;-76
2023/03/10 05:03:50;;;;;;;19.60;12.90;;;2.60;1.00;;;;;;5024399;28;20179;-76
2023/03/10 05:06:18;;;;;;;21.07;12.40;;;2.60;1.00;;;;;;5025204;28;20215;-76
2023/03/10 05:08:44;;;;;;;21.73;12.77;;;2.60;1.00;;;;;;5015932;28;20179;-78
2023/03/10 05:11:09;;;;;;;24.50;13.30;;;2.70;1.00;;;;;;5025355;28;20264;-77
2023/03/10 05:13:35;;;;;;;21.00;12.27;;;2.70;1.00;;;;;;5025635;28;20542;-76
2023/03/10 05:16:01;;;;;;;21.33;11.40;;;2.70;1.00;;;;;;5041548;28;20226;-79
2023/03/10 05:18:26;;;;;;;20.03;12.27;;;2.70;1.00;;;;;;5027119;28;20209;-78
2023/03/10 05:20:57;;;;;;;17.07;10.80;;;2.80;1.00;;;;;;5026705;28;20233;-76
2023/03/10 05:23:23;;;;;;;21.53;12.63;;;2.80;1.00;;;;;;5026800;28;20191;-76
2023/03/10 05:25:49;;;;;;;20.17;12.10;;;2.80;1.00;;;;;;5018723;28;20233;-79
2023/03/10 05:28:14;;;;;;;20.30;12.00;;;2.90;1.00;;;;;;5026751;28;20175;-79
2023/03/10 05:30:40;;;;;;;18.57;11.03;;;2.80;1.00;;;;;;5024570;28;20198;-76
2023/03/10 05:33:05;;;;;;;21.60;11.43;;;2.80;1.00;;;;;;5028570;28;20662;-76
2023/03/10 05:35:31;;;;;;;15.97;10.83;;;2.80;1.00;;;;;;5028051;28;20206;-76
2023/03/10 05:37:57;;;;;;;16.10;10.83;;;2.90;1.00;;;;;;5023969;28;20179;-78
2023/03/10 05:40:23;;;;;;;18.30;10.67;;;2.90;1.00;;;;;;5021128;28;20252;-79
2023/03/10 05:42:49;;;;;;;14.77;10.17;;;2.90;1.00;;;;;;5031775;28;21004;-78
2023/03/10 05:45:15;;;;;;;18.77;11.27;;;2.90;1.00;;;;;;5031810;28;20199;-78
2023/03/10 05:47:41;;;;;;;18.07;10.80;;;2.90;1.00;;;;;;5021774;28;20214;-77
2023/03/10 05:50:08;;;;;;;19.37;11.80;;;2.90;1.00;;;;;;5032206;28;20187;-78
2023/03/10 05:52:41;;;;;;;16.43;10.07;;;2.90;1.00;;;;;;5034035;28;20190;-78
2023/03/10 05:55:11;;;;;;;17.20;10.97;;;3.00;1.00;;;;;;5033437;28;20694;-79
2023/03/10 05:57:37;;;;;;;16.67;10.73;;;3.00;1.00;;;;;;5032316;28;20216;-77
2023/03/10 06:00:05;;;;;;;18.93;11.80;;;3.00;1.00;;;;;;5032162;28;20183;-78
2023/03/10 06:02:30;;;;;;;18.93;12.27;;;3.00;1.00;;;;;;5031400;28;20256;-77
2023/03/10 06:04:56;;;;;;;23.20;14.90;;;3.00;1.00;;;;;;5033846;28;20708;-77
2023/03/10 06:07:21;;;;;;;19.80;12.40;;;3.00;1.00;;;;;;5032441;28;20194;-78
2023/03/10 06:09:47;;;;;;;21.27;14.43;;;3.10;1.00;;;;;;5025666;28;20210;-78
2023/03/10 06:12:12;;;;;;;21.47;13.93;;;3.10;1.00;;;;;;5030653;28;20191;-77
2023/03/10 06:14:38;;;;;;;20.80;14.03;;;3.20;1.00;;;;;;5023773;28;20225;-78
2023/03/10 06:17:04;;;;;;;21.73;15.37;;;3.10;1.00;;;;;;5033342;28;21093;-78
2023/03/10 06:19:29;;;;;;;20.47;12.93;;;3.30;1.00;;;;;;5031311;28;20183;-78
2023/03/10 06:21:55;;;;;;;18.13;12.50;;;3.20;1.00;;;;;;5033515;28;20187;-78
2023/03/10 06:24:20;;;;;;;20.30;12.47;;;3.20;1.00;;;;;;5024812;28;20183;-78
2023/03/10 06:26:46;;;;;;;17.13;10.73;;;3.30;1.00;;;;;;5033004;28;20203;-78
2023/03/10 06:29:11;;;;;;;17.97;12.73;;;3.30;1.00;;;;;;5025652;28;20214;-79
2023/03/10 06:31:37;;;;;;;19.23;13.47;;;3.30;1.00;;;;;;5030825;28;20179;-77
2023/03/10 06:34:02;;;;;;;22.97;14.13;;;3.40;1.30;;;;;;5024830;28;20191;-78
2023/03/10 06:36:31;;;;;;;24.23;16.00;;;3.40;10.10;;;;;;5032829;28;20206;-78
2023/03/10 06:38:57;;;;;;;18.30;13.60;;;3.40;10.00;;;;;;5023718;28;20197;-78
2023/03/10 06:41:24;;;;;;;20.03;13.20;;;3.40;13.10;;;;;;5029670;28;20182;-78
2023/03/10 06:43:50;;;;;;;19.20;14.73;;;3.40;14.70;;;;;;5026018;28;20186;-78
2023/03/10 06:46:15;;;;;;;17.60;12.80;;;3.50;15.10;;;;;;5027726;28;20215;-78
2023/03/10 06:48:42;;;;;;;18.93;13.27;;;3.50;13.30;;;;;;5028623;28;20183;-77
2023/03/10 06:51:11;;;;;;;20.43;14.13;;;3.50;14.60;;;;;;5031046;28;20572;-78
2023/03/10 06:53:37;;;;;;;15.77;11.40;;;3.60;15.90;;;;;;5045115;28;20214;-78
2023/03/10 06:56:06;;;;;;;15.93;11.90;;;3.60;16.50;;;;;;5031215;28;20272;-78
2023/03/10 06:58:33;;;;;;;15.57;12.80;;;3.60;7.80;;;;;;5033323;28;20187;-79
2023/03/10 07:00:59;;;;;;;14.90;12.27;;;3.70;3.00;;;;;;5032899;28;20185;-77
2023/03/10 07:03:27;;;;;;;17.53;13.37;;;3.70;1.00;;;;;;5033732;28;20179;-78
2023/03/10 07:05:53;;;;;;;16.07;11.07;;;3.80;1.00;;;;;;5041774;28;20206;-76
2023/03/10 07:08:19;;;;;;;18.00;12.50;;;3.90;1.00;;;;;;5017397;28;20275;-77
2023/03/10 07:10:45;;;;;;;17.67;12.27;;;4.00;11.00;;;;;;5017327;28;20640;-78
2023/03/10 07:13:14;;;;;;;16.87;12.17;;;4.00;15.00;;;;;;5023608;28;20191;-77
2023/03/10 07:15:41;;;;;;;15.47;10.87;;;4.00;14.70;;;;;;5025655;28;20217;-77
2023/03/10 07:18:06;;;;;;;18.43;11.73;;;4.00;28.50;;;;;;5017953;28;20183;-77
2023/03/10 07:20:32;;;;;;;15.93;11.40;;;4.00;1.00;;;;;;5023701;28;20240;-78
2023/03/10 07:22:57;;;;;;;19.60;12.77;;;4.10;1.00;;;;;;5024934;28;20622;-77
2023/03/10 07:25:24;;;;;;;17.77;11.90;;;4.40;99.90;;;;;;5024584;28;20217;-77
2023/03/10 07:27:50;;;;;;;18.70;11.47;;;4.40;99.90;;;;;;5035629;23;20234;-79
2023/03/10 07:30:16;;;;;;;16.27;10.70;;;4.40;99.90;;;;;;5060720;28;20182;-78
2023/03/10 07:32:41;;;;;;;15.23;11.07;;;4.40;97.60;;;;;;5027168;28;20790;-79
2023/03/10 07:35:07;;;;;;;21.73;17.13;;;4.40;73.90;;;;;;5033999;28;20206;-78
2023/03/10 07:37:36;;;;;;;19.03;15.97;;;4.40;44.50;;;;;;5051893;28;20559;-80
2023/03/10 07:40:03;;;;;;;14.27;10.83;;;4.30;11.10;;;;;;5038043;28;20189;-78
2023/03/10 07:42:28;;;;;;;14.87;11.87;;;4.20;1.00;;;;;;5036328;28;20186;-78
2023/03/10 07:44:54;;;;;;;15.10;10.80;;;4.30;1.00;;;;;;5051187;28;20962;-79
2023/03/10 07:47:19;;;;;;;13.90;10.27;;;4.20;1.00;;;;;;5054692;28;20726;-80
2023/03/10 07:49:45;;;;;;;12.43;9.70;;;4.10;1.00;;;;;;5034334;28;20199;-77
2023/03/10 07:52:13;;;;;;;13.53;9.40;;;4.10;99.90;;;;;;5036858;28;20194;-80
2023/03/10 07:54:39;;;;;;;22.67;15.37;;;4.10;99.90;;;;;;5033705;28;20285;-77
2023/03/10 07:57:04;;;;;;;12.63;9.90;;;4.10;56.80;;;;;;5038226;28;20564;-79
2023/03/10 07:59:30;;;;;;;19.73;13.90;;;4.00;1.00;;;;;;5020863;28;20446;-78
2023/03/10 08:01:55;;;;;;;34.33;24.10;;;4.00;1.00;;;;;;5039077;28;20194;-79
2023/03/10 08:04:21;;;;;;;23.30;17.87;;;4.00;99.90;;;;;;5028180;28;20212;-79
2023/03/10 08:06:46;;;;;;;17.73;13.97;;;4.00;99.90;;;;;;5038339;28;20190;-79
2023/03/10 08:09:12;;;;;;;16.13;14.30;;;4.10;1.00;;;;;;5026859;28;20235;-79
2023/03/10 08:11:37;;;;;;;19.80;16.57;;;4.10;1.00;;;;;;5031510;28;20194;-78
2023/03/10 08:14:03;;;;;;;17.87;14.43;;;4.10;99.90;;;;;;5029782;28;20198;-80
2023/03/10 08:16:28;;;;;;;22.33;17.80;;;4.00;1.00;;;;;;5032122;28;20920;-78
2023/03/10 08:18:54;;;;;;;22.97;19.50;;;4.00;1.00;;;;;;5034213;28;20479;-78
2023/03/10 08:21:20;;;;;;;20.93;17.73;;;3.90;99.90;;;;;;5026661;28;20269;-79
2023/03/10 08:23:45;;;;;;;18.70;13.57;;;3.90;99.90;;;;;;5027366;28;20233;-78
2023/03/10 08:26:16;;;;;;;23.47;19.00;;;3.90;1.00;;;;;;5044086;28;20198;-79
2023/03/10 08:28:42;;;;;;;22.30;19.20;;;3.90;1.00;;;;;;5035496;28;20676;-78
2023/03/10 08:31:10;;;;;;;26.00;21.27;;;3.90;1.00;;;;;;5034631;28;20650;-77
2023/03/10 08:33:37;;;;;;;23.40;18.80;;;3.80;1.00;;;;;;5037833;28;20191;-78
2023/03/10 08:36:07;;;;;;;18.20;15.47;;;3.80;1.00;;;;;;5039243;28;20252;-78
2023/03/10 08:38:33;;;;;;;16.57;13.40;;;3.90;1.00;;;;;;5036932;28;20243;-78
2023/03/10 08:41:12;;;;;;;14.20;10.77;;;3.90;1.00;;;;;;5038118;28;20183;-78
2023/03/10 08:43:38;;;;;;;13.93;11.47;;;3.90;1.00;;;;;;5041865;28;20205;-77
2023/03/10 08:46:05;;;;;;;12.27;10.40;;;3.80;1.00;;;;;;5036181;28;20213;-79
2023/03/10 08:48:31;;;;;;;13.67;11.70;;;3.90;1.00;;;;;;5034766;28;20183;-78
2023/03/10 08:50:56;;;;;;;12.43;10.93;;;3.90;1.00;;;;;;5036468;28;20243;-77
2023/03/10 08:53:22;;;;;;;12.40;11.10;;;4.00;99.90;;;;;;5037002;28;20327;-78
2023/03/10 08:55:48;;;;;;;10.60;8.93;;;4.10;99.90;;;;;;5049476;28;20202;-77
2023/03/10 08:58:14;;;;;;;12.53;11.27;;;4.10;99.90;;;;;;5037445;28;20228;-78
2023/03/10 09:00:41;;;;;;;8.87;7.83;;;3.80;99.90;;;;;;5035390;28;20256;-79
2023/03/10 09:03:09;;;;;;;8.47;7.67;;;4.30;1.00;;;;;;5032745;28;20198;-79
2023/03/10 09:05:36;;;;;;;8.67;7.87;;;4.10;1.00;;;;;;5032179;28;20266;-77
2023/03/10 09:08:02;;;;;;;12.17;9.47;;;4.10;45.30;;;;;;5032949;28;20186;-78
2023/03/10 09:10:27;;;;;;;11.00;8.73;;;4.20;99.90;;;;;;5036186;28;20190;-79
2023/03/10 09:12:53;;;;;;;9.30;8.30;;;4.00;99.90;;;;;;5035895;28;20199;-78
2023/03/10 09:15:18;;;;;;;8.33;7.40;;;4.20;1.00;;;;;;5036233;28;20214;-78
2023/03/10 09:17:44;;;;;;;10.13;8.63;;;4.20;99.90;;;;;;5037437;28;20281;-77
2023/03/10 09:20:10;;;;;;;8.33;7.53;;;4.00;99.90;;;;;;5043267;28;20191;-77
2023/03/10 09:22:36;;;;;;;9.27;8.37;;;4.10;99.90;;;;;;5035662;28;20646;-78
2023/03/10 09:25:02;;;;;;;8.63;7.70;;;4.10;99.90;;;;;;5036546;28;20207;-77
2023/03/10 09:27:27;;;;;;;7.70;6.90;;;4.00;99.90;;;;;;5037552;28;20285;-77
2023/03/10 09:29:53;;;;;;;8.30;7.50;;;4.00;99.90;;;;;;5037012;28;20280;-78
2023/03/10 09:32:18;;;;;;;8.10;7.30;;;4.10;99.90;;;;;;5037133;28;20190;-77
2023/03/10 09:34:45;;;;;;;7.00;6.30;;;4.10;99.90;;;;;;5051499;28;20213;-78
2023/03/10 09:37:11;;;;;;;8.00;6.87;;;4.10;1.00;;;;;;5037278;28;20222;-79
2023/03/10 09:39:36;;;;;;;7.80;6.90;;;4.10;1.00;;;;;;5036463;28;20178;-79
2023/03/10 09:42:14;;;;;;;7.43;6.30;;;4.20;1.00;;;;;;5035361;28;20278;-78
2023/03/10 09:44:55;;;;;;;7.50;6.70;;;4.30;99.90;;;;;;5043543;28;20194;-79
2023/03/10 09:47:57;;;;;;;10.67;9.73;;;4.20;32.10;;;;;;5038005;28;20182;-78
2023/03/10 09:50:31;;;;;;;9.77;8.87;;;4.40;1.00;;;;;;5036985;28;20193;-79
2023/03/10 09:53:17;;;;;;;8.07;7.37;;;4.70;22.50;;;;;;5037435;28;20182;-78
2023/03/10 09:55:44;;;;;;;6.23;5.63;;;4.90;38.80;;;;;;5033950;28;20217;-79
2023/03/10 09:58:18;;;;;;;5.90;5.30;;;5.00;99.90;;;;;;5037006;28;20204;-79
2023/03/10 10:00:44;;;;;;;6.47;5.90;;;5.00;99.90;;;;;;5036342;28;20186;-81
2023/03/10 10:03:16;;;;;;;7.50;6.17;;;5.00;99.90;;;;;;5034080;28;20198;-79
2023/03/10 10:05:43;;;;;;;5.83;5.23;;;5.10;97.40;;;;;;5034087;28;20222;-80
2023/03/10 10:08:24;;;;;;;4.40;4.00;;;5.20;99.90;;;;;;5041939;28;20564;-80
2023/03/10 10:10:56;;;;;;;4.67;4.17;;;5.00;1.00;;;;;;5033507;28;20186;-79
2023/03/10 10:13:24;;;;;;;6.07;5.57;;;4.80;99.90;;;;;;5034128;28;20183;-79
2023/03/10 10:16:26;;;;;;;5.03;4.63;;;4.80;99.90;;;;;;5034661;28;20210;-80
2023/03/10 10:19:13;;;;;;;5.80;5.30;;;4.60;1.00;;;;;;5048072;28;20557;-78
2023/03/10 10:22:02;;;;;;;5.50;5.00;;;4.70;1.00;;;;;;5049714;28;20212;-78
2023/03/10 10:24:28;;;;;;;4.97;4.47;;;4.70;99.90;;;;;;5033349;28;20763;-78
2023/03/10 10:26:54;;;;;;;4.53;4.13;;;4.90;99.90;;;;;;5050251;28;20183;-79
2023/03/10 10:29:26;;;;;;;4.50;4.10;;;4.90;1.00;;;;;;5033484;28;20277;-78
2023/03/10 10:32:03;;;;;;;4.33;3.93;;;5.00;99.90;;;;;;5035050;28;20668;-79
2023/03/10 10:34:30;;;;;;;4.93;4.43;;;4.80;99.90;;;;;;5032436;28;20628;-78
2023/03/10 10:36:57;;;;;;;4.93;4.53;;;4.60;69.10;;;;;;5035301;28;20198;-78
2023/03/10 10:39:36;;;;;;;4.37;3.97;;;4.70;1.00;;;;;;5036525;28;20211;-79
2023/03/10 10:42:23;;;;;;;4.73;4.23;;;4.80;1.00;;;;;;5036013;28;20189;-78
2023/03/10 10:44:54;;;;;;;4.63;4.23;;;5.00;99.90;;;;;;5032727;28;20221;-78
2023/03/10 10:47:27;;;;;;;4.00;3.67;;;4.80;35.80;;;;;;5036410;28;20206;-79
2023/03/10 10:49:53;;;;;;;7.33;5.87;;;5.00;99.90;;;;;;5028109;28;20733;-78
2023/03/10 10:52:22;;;;;;;5.90;5.07;;;4.80;23.90;;;;;;5021175;28;20183;-78
2023/03/10 10:54:56;;;;;;;5.40;4.73;;;4.90;99.90;;;;;;5032742;28;20262;-78
2023/03/10 10:57:34;;;;;;;4.20;3.80;;;5.10;99.90;;;;;;5030151;28;20199;-79
2023/03/10 11:00:30;;;;;;;4.03;3.70;;;5.30;99.90;;;;;;5028026;28;20210;-80
2023/03/10 11:02:57;;;;;;;5.00;4.57;;;5.70;39.80;;;;;;5036864;28;20182;-79
2023/03/10 11:05:36;;;;;;;4.07;3.77;;;5.80;99.90;;;;;;5030658;28;20214;-79
2023/03/10 11:08:17;;;;;;;4.13;3.73;;;5.80;79.50;;;;;;5042870;28;20665;-79
2023/03/10 11:10:48;;;;;;;3.20;3.00;;;5.80;1.00;;;;;;5023917;28;20514;-79
2023/03/10 11:13:30;;;;;;;3.27;2.97;;;5.50;1.00;;;;;;5020934;28;20191;-78
2023/03/10 11:16:26;;;;;;;2.90;2.70;;;5.40;1.00;;;;;;5027038;28;20361;-78
2023/03/10 11:19:02;;;;;;;3.10;2.90;;;5.40;99.90;;;;;;5033004;28;20183;-79
2023/03/10 11:21:33;;;;;;;3.07;2.87;;;5.70;53.50;;;;;;5041005;28;20182;-79
2023/03/10 11:24:13;;;;;;;3.13;2.83;;;5.90;11.80;;;;;;5024877;28;20179;-78
2023/03/10 11:26:50;;;;;;;3.23;2.93;;;5.70;1.00;;;;;;5032520;28;20233;-79
2023/03/10 11:29:26;;;;;;;3.03;2.83;;;5.70;16.60;;;;;;5032520;28;20586;-78
2023/03/10 11:32:06;;;;;;;3.57;3.27;;;5.80;1.00;;;;;;5050376;28;20665;-79
2023/03/10 11:34:39;;;;;;;3.43;3.20;;;5.60;1.00;;;;;;5028785;28;20668;-79
2023/03/10 11:37:13;;;;;;;4.13;3.73;;;5.70;99.90;;;;;;5023456;28;20466;-79
2023/03/10 11:39:56;;;;;;;4.60;4.20;;;5.80;99.90;;;;;;5021294;28;20601;-78
2023/03/10 11:42:41;;;;;;;4.43;4.03;;;5.70;1.00;;;;;;5039175;28;20646;-78
2023/03/10 11:45:36;;;;;;;3.57;3.27;;;5.90;99.90;;;;;;5032754;28;20555;-78
2023/03/10 11:48:24;;;;;;;3.40;3.20;;;6.00;1.00;;;;;;5034540;28;20233;-78
2023/03/10 11:50:58;;;;;;;4.23;3.83;;;5.90;1.00;;;;;;5027932;28;20398;-78
2023/03/10 11:53:35;;;;;;;4.27;3.87;;;5.90;1.00;;;;;;5032787;28;20210;-79
2023/03/10 11:56:03;;;;;;;4.23;3.77;;;5.70;1.00;;;;;;5043667;28;20210;-78
2023/03/10 11:58:56;;;;;;;5.10;4.50;;;5.60;1.00;;;;;;5051911;28;20183;-78
2023/03/10 12:01:32;;;;;;;5.97;5.07;;;5.50;1.00;;;;;;5031703;28;20187;-78
2023/03/10 12:04:08;;;;;;;5.17;4.67;;;5.20;99.90;;;;;;5031442;28;20183;-78
2023/03/10 12:06:57;;;;;;;4.50;4.10;;;5.20;1.00;;;;;;5030618;28;20685;-78
2023/03/10 12:09:46;;;;;;;5.10;4.70;;;5.30;99.90;;;;;;5034291;28;20673;-78
2023/03/10 12:12:14;;;;;;;4.83;4.33;;;5.30;99.90;;;;;;5034136;28;20186;-78
2023/03/10 12:14:42;;;;;;;5.73;4.87;;;4.90;1.00;;;;;;5029895;28;20213;-78
2023/03/10 12:17:12;;;;;;;4.80;4.40;;;5.40;1.00;;;;;;5042629;28;20273;-78
2023/03/10 12:20:11;;;;;;;5.40;4.90;;;5.50;99.90;;;;;;5033695;28;20552;-78
2023/03/10 12:23:14;;;;;;;7.33;5.63;;;5.60;57.80;;;;;;5027518;28;20194;-78
2023/03/10 12:25:44;;;;;;;6.40;5.70;;;5.70;99.90;;;;;;5047007;28;20866;-78
2023/03/10 12:28:16;;;;;;;6.27;5.50;;;6.00;99.90;;;;;;5024155;28;20206;-78
2023/03/10 12:30:47;;;;;;;5.90;5.40;;;6.30;8.90;;;;;;5040049;28;20190;-77
2023/03/10 12:33:38;;;;;;;5.07;4.67;;;6.40;1.00;;;;;;5040684;28;20210;-78
2023/03/10 12:36:13;;;;;;;5.07;4.67;;;6.40;1.00;;;;;;5033829;28;20214;-79
2023/03/10 12:38:49;;;;;;;3.90;3.57;;;6.90;1.00;;;;;;5035062;28;20617;-79
2023/03/10 12:41:42;;;;;;;3.50;3.20;;;7.10;1.00;;;;;;5040710;28;20551;-78
2023/03/10 12:44:32;;;;;;;3.97;3.47;;;7.30;99.90;;;;;;5046067;28;20549;-78
2023/03/10 12:46:57;;;;;;;4.53;3.17;;;7.20;99.90;;;;;;5038323;28;20675;-79
2023/03/10 12:49:31;;;;;;;3.80;3.20;;;7.00;99.90;;;;;;5036122;28;20331;-79
2023/03/10 12:52:06;;;;;;;4.33;3.97;;;6.90;1.00;;;;;;5038179;28;20232;-78
2023/03/10 12:54:53;;;;;;;5.93;5.43;;;6.70;99.90;;;;;;5026040;28;20228;-78
2023/03/10 12:57:38;;;;;;;3.70;3.40;;;6.80;1.00;;;;;;5035404;28;20211;-79
2023/03/10 13:00:11;;;;;;;5.20;4.70;;;6.70;1.00;;;;;;5025773;28;20194;-78